createdAt,value
2019-02-10T00:01:11.031Z,100190.02
2019-02-10T00:03:40.942Z,100184.45
2019-02-10T00:06:09.767Z,100180.14
2019-02-10T00:08:38.204Z,100187.77
2019-02-10T00:11:06.655Z,100187.77
2019-02-10T00:13:35.928Z,100184.80
2019-02-10T00:16:07.693Z,100184.80
2019-02-10T00:18:36.124Z,100186.88
2019-02-10T00:21:04.648Z,100186.88
2019-02-10T00:23:33.075Z,100193.40
2019-02-10T00:26:01.525Z,100193.92
2019-02-10T00:28:29.954Z,100182.64
2019-02-10T00:30:58.407Z,100182.64
2019-02-10T00:33:26.921Z,100181.70
2019-02-10T00:35:55.378Z,100184.80
2019-02-10T00:38:23.810Z,100174.02
2019-02-10T00:40:52.329Z,100174.02
2019-02-10T00:43:20.764Z,100173.23
2019-02-10T00:45:49.222Z,100176.31
2019-02-10T00:48:17.653Z,100176.31
2019-02-10T00:50:46.181Z,100174.22
2019-02-10T00:53:14.612Z,100174.22
2019-02-10T00:55:43.068Z,100178.34
2019-02-10T00:58:11.497Z,100170.34
2019-02-10T01:00:40.022Z,100171.03
2019-02-10T01:03:08.447Z,100175.55
2019-02-10T01:05:36.879Z,100168.31
2019-02-10T01:08:05.472Z,100167.34
2019-02-10T01:10:33.906Z,100167.34
2019-02-10T01:13:02.425Z,100166.94
2019-02-10T01:15:30.862Z,100161.52
2019-02-10T01:17:59.560Z,100161.66
2019-02-10T01:20:27.987Z,100161.66
2019-02-10T01:22:56.520Z,100171.09
2019-02-10T01:25:24.946Z,100155.41
2019-02-10T01:27:53.479Z,100155.41
2019-02-10T01:30:21.982Z,100166.60
2019-02-10T01:32:50.443Z,100147.62
2019-02-10T01:35:18.874Z,100158.61
2019-02-10T01:37:47.393Z,100158.61
2019-02-10T01:40:15.901Z,100161.61
2019-02-10T01:42:44.355Z,100163.80
2019-02-10T01:45:13.324Z,100165.02
2019-02-10T01:47:41.850Z,100165.02
2019-02-10T01:50:11.310Z,100157.55
2019-02-10T01:52:39.833Z,100158.31
2019-02-10T01:55:12.773Z,100151.28
2019-02-10T01:57:41.639Z,100142.67
2019-02-10T02:00:12.811Z,100143.70
2019-02-10T02:02:41.345Z,100135.87
2019-02-10T02:05:10.120Z,100139.78
2019-02-10T02:07:38.578Z,100139.78
2019-02-10T02:10:09.648Z,100134.89
2019-02-10T02:12:38.174Z,100134.89
2019-02-10T02:15:12.175Z,100118.84
2019-02-10T02:17:46.570Z,100118.84
2019-02-10T02:20:15.042Z,100130.83
2019-02-10T02:22:43.565Z,100130.83
2019-02-10T02:25:12.847Z,100117.63
2019-02-10T02:27:41.347Z,100117.63
2019-02-10T02:30:13.023Z,100126.45
2019-02-10T02:32:41.485Z,100117.48
2019-02-10T02:35:10.471Z,100117.48
2019-02-10T02:37:38.970Z,100117.52
2019-02-10T02:40:09.894Z,100117.52
2019-02-10T02:42:38.454Z,100109.15
2019-02-10T02:45:10.023Z,100111.77
2019-02-10T02:47:38.521Z,100117.18
2019-02-10T02:50:09.119Z,100108.80
2019-02-10T02:52:37.619Z,100096.57
2019-02-10T02:55:08.205Z,100100.63
2019-02-10T02:57:36.633Z,100093.70
2019-02-10T03:00:07.027Z,100092.44
2019-02-10T03:02:35.465Z,100088.98
2019-02-10T03:05:04.262Z,100079.55
2019-02-10T03:07:32.693Z,100067.61
2019-02-10T03:10:01.159Z,100062.86
2019-02-10T03:12:29.654Z,100070.98
2019-02-10T03:14:58.122Z,100066.58
2019-02-10T03:17:26.555Z,100055.43
2019-02-10T03:19:55.015Z,100065.62
2019-02-10T03:22:23.447Z,100067.36
2019-02-10T03:24:51.968Z,100068.65
2019-02-10T03:27:20.398Z,100068.65
2019-02-10T03:29:48.849Z,100059.44
2019-02-10T03:32:17.311Z,100052.64
2019-02-10T03:34:45.815Z,100042.38
2019-02-10T03:37:14.240Z,100042.23
2019-02-10T03:39:42.698Z,100042.23
2019-02-10T03:42:11.197Z,100027.96
2019-02-10T03:44:39.659Z,100027.45
2019-02-10T03:47:08.092Z,100027.45
2019-02-10T03:49:36.524Z,100016.89
2019-02-10T03:52:05.551Z,100016.89
2019-02-10T03:54:34.124Z,100016.36
2019-02-10T03:57:02.582Z,100009.43
2019-02-10T03:59:31.083Z,100007.38
2019-02-10T04:01:59.545Z,100011.30
2019-02-10T04:04:28.044Z,99994.22
2019-02-10T04:06:56.499Z,100002.53
2019-02-10T04:09:24.933Z,100002.53
2019-02-10T04:11:53.396Z,99996.62
2019-02-10T04:14:21.822Z,99992.16
2019-02-10T04:16:50.269Z,99992.16
2019-02-10T04:19:18.832Z,99984.44
2019-02-10T04:21:47.282Z,99985.38
2019-02-10T04:24:15.709Z,99979.41
2019-02-10T04:26:44.226Z,99955.73
2019-02-10T04:29:12.649Z,99955.73
2019-02-10T04:31:41.166Z,99957.85
2019-02-10T04:34:09.593Z,99955.97
2019-02-10T04:36:38.111Z,99960.77
2019-02-10T04:39:06.549Z,99954.44
2019-02-10T04:41:35.075Z,99946.45
2019-02-10T04:44:03.500Z,99946.45
2019-02-10T04:46:31.930Z,99932.95
2019-02-10T04:49:00.375Z,99926.77
2019-02-10T04:51:28.808Z,99926.77
2019-02-10T04:53:57.253Z,99922.23
2019-02-10T04:56:25.685Z,99912.05
2019-02-10T04:58:54.131Z,99912.05
2019-02-10T05:01:22.551Z,99901.22
2019-02-10T05:03:50.999Z,99906.64
2019-02-10T05:06:19.415Z,99905.88
2019-02-10T05:08:47.868Z,99888.81
2019-02-10T05:11:16.297Z,99888.81
2019-02-10T05:13:44.745Z,99884.05
2019-02-10T05:16:13.240Z,99884.86
2019-02-10T05:18:41.703Z,99880.84
2019-02-10T05:21:10.191Z,99879.66
2019-02-10T05:23:38.638Z,99875.45
2019-02-10T05:26:07.066Z,99874.67
2019-02-10T05:28:35.523Z,99876.18
2019-02-10T05:31:04.410Z,99867.08
2019-02-10T05:33:32.864Z,99864.45
2019-02-10T05:36:01.313Z,99864.45
2019-02-10T05:38:29.753Z,99857.29
2019-02-10T05:40:58.182Z,99841.00
2019-02-10T05:43:26.628Z,99841.00
2019-02-10T05:45:55.045Z,99839.05
2019-02-10T05:48:23.494Z,99837.56
2019-02-10T05:50:51.984Z,99838.73
2019-02-10T05:53:20.435Z,99835.84
2019-02-10T05:55:48.867Z,99827.72
2019-02-10T05:58:17.313Z,99817.64
2019-02-10T06:00:45.746Z,99826.70
2019-02-10T06:03:14.194Z,99819.33
2019-02-10T06:05:42.618Z,99819.33
2019-02-10T06:08:13.471Z,99803.59
2019-02-10T06:10:41.216Z,99795.63
2019-02-10T06:13:09.671Z,99785.37
2019-02-10T06:15:38.091Z,99785.37
2019-02-10T06:18:06.519Z,99768.84
2019-02-10T06:20:35.040Z,99768.84
2019-02-10T06:23:03.472Z,99772.55
2019-02-10T06:25:31.925Z,99756.48
2019-02-10T06:28:00.346Z,99756.48
2019-02-10T06:30:28.796Z,99744.16
2019-02-10T06:32:57.219Z,99746.60
2019-02-10T06:35:25.676Z,99746.60
2019-02-10T06:37:54.097Z,99750.70
2019-02-10T06:40:22.543Z,99741.67
2019-02-10T06:42:50.967Z,99741.67
2019-02-10T06:45:19.430Z,99740.70
2019-02-10T06:47:47.848Z,99737.03
2019-02-10T06:50:16.299Z,99741.09
2019-02-10T06:52:44.720Z,99741.09
2019-02-10T06:55:13.184Z,99729.13
2019-02-10T06:57:41.607Z,99723.27
2019-02-10T07:00:12.737Z,99723.27
2019-02-10T07:03:05.374Z,99715.15
2019-02-10T07:05:33.836Z,99701.92
2019-02-10T07:08:02.261Z,99701.92
2019-02-10T07:10:30.713Z,99691.72
2019-02-10T07:12:59.133Z,99694.03
2019-02-10T07:16:04.089Z,99681.85
2019-02-10T07:19:09.156Z,99677.41
2019-02-10T07:21:37.607Z,99662.59
2019-02-10T07:24:30.826Z,99669.93
2019-02-10T07:27:02.459Z,99669.93
2019-02-10T07:29:49.058Z,99672.99
2019-02-10T07:32:20.671Z,99665.39
2019-02-10T07:35:01.570Z,99649.77
2019-02-10T07:37:51.149Z,99649.77
2019-02-10T07:40:42.489Z,99641.20
2019-02-10T07:43:44.306Z,99632.55
2019-02-10T07:46:18.599Z,99615.88
2019-02-10T07:48:56.036Z,99615.97
2019-02-10T07:51:39.553Z,99615.97
2019-02-10T07:54:13.820Z,99601.30
2019-02-10T07:56:45.450Z,99601.30
2019-02-10T07:59:33.403Z,99593.73
2019-02-10T08:02:25.987Z,99590.69
2019-02-10T08:05:03.031Z,99590.69
2019-02-10T08:07:53.860Z,99586.31
2019-02-10T08:10:54.172Z,99558.51
2019-02-10T08:13:56.104Z,99567.06
2019-02-10T08:16:51.863Z,99567.06
2019-02-10T08:19:43.947Z,99544.20
2019-02-10T08:22:31.691Z,99535.92
2019-02-10T08:25:03.299Z,99511.34
2019-02-10T08:27:46.873Z,99505.93
2019-02-10T08:30:36.057Z,99484.16
2019-02-10T08:33:19.616Z,99486.70
2019-02-10T08:35:56.922Z,99486.70
2019-02-10T08:38:28.548Z,99491.71
2019-02-10T08:41:19.906Z,99465.03
2019-02-10T08:44:15.076Z,99455.37
2019-02-10T08:46:49.613Z,99455.37
2019-02-10T08:49:30.239Z,99429.73
2019-02-10T08:52:25.967Z,99431.71
2019-02-10T08:54:55.359Z,99431.71
2019-02-10T08:57:23.778Z,99419.02
2019-02-10T08:59:52.234Z,99414.73
2019-02-10T09:02:20.661Z,99398.71
2019-02-10T09:04:49.121Z,99401.72
2019-02-10T09:07:17.543Z,99401.72
2019-02-10T09:09:45.995Z,99371.41
2019-02-10T09:12:14.420Z,99365.69
2019-02-10T09:14:42.874Z,99365.69
2019-02-10T09:17:11.302Z,99370.17
2019-02-10T09:19:39.762Z,99370.17
2019-02-10T09:22:08.270Z,99346.33
2019-02-10T09:24:36.720Z,99331.02
2019-02-10T09:27:05.217Z,99331.02
2019-02-10T09:29:33.735Z,99311.66
2019-02-10T09:32:02.157Z,99314.14
2019-02-10T09:34:30.618Z,99293.76
2019-02-10T09:36:59.048Z,99293.76
2019-02-10T09:39:27.567Z,99278.88
2019-02-10T09:41:55.994Z,99258.12
2019-02-10T09:44:24.449Z,99245.95
2019-02-10T09:46:52.873Z,99244.81
2019-02-10T09:49:21.330Z,99234.21
2019-02-10T09:51:49.750Z,99234.21
2019-02-10T09:54:18.313Z,99227.03
2019-02-10T09:56:46.735Z,99228.27
2019-02-10T09:59:15.157Z,99211.70
2019-02-10T10:01:43.612Z,99211.70
2019-02-10T10:04:12.036Z,99196.09
2019-02-10T10:06:40.481Z,99195.16
2019-02-10T10:09:08.902Z,99195.38
2019-02-10T10:11:37.356Z,99177.27
2019-02-10T10:14:05.777Z,99174.86
2019-02-10T10:16:34.223Z,99174.86
2019-02-10T10:19:02.655Z,99160.27
2019-02-10T10:21:31.105Z,99140.31
2019-02-10T10:23:59.597Z,99140.31
2019-02-10T10:26:28.054Z,99125.13
2019-02-10T10:28:56.477Z,99125.84
2019-02-10T10:31:24.933Z,99117.49
2019-02-10T10:33:53.354Z,99117.49
2019-02-10T10:36:21.803Z,99110.20
2019-02-10T10:38:50.232Z,99091.48
2019-02-10T10:41:18.681Z,99079.93
2019-02-10T10:43:47.104Z,99066.17
2019-02-10T10:46:15.556Z,99057.91
2019-02-10T10:48:43.979Z,99057.91
2019-02-10T10:51:12.440Z,99059.95
2019-02-10T10:53:40.854Z,99048.87
2019-02-10T10:56:09.305Z,99036.13
2019-02-10T10:58:37.728Z,99036.13
2019-02-10T11:01:06.182Z,99022.09
2019-02-10T11:03:34.604Z,99023.72
2019-02-10T11:06:03.023Z,99004.13
2019-02-10T11:08:31.473Z,98990.41
2019-02-10T11:10:59.898Z,98990.41
2019-02-10T11:13:28.345Z,98972.91
2019-02-10T11:15:57.309Z,98972.91
2019-02-10T11:18:25.973Z,98949.09
2019-02-10T11:20:54.393Z,98939.52
2019-02-10T11:23:22.846Z,98916.20
2019-02-10T11:25:51.270Z,98918.34
2019-02-10T11:28:19.719Z,98918.34
2019-02-10T11:30:48.156Z,98896.73
2019-02-10T11:33:16.613Z,98879.06
2019-02-10T11:35:45.044Z,98879.06
2019-02-10T11:38:13.490Z,98853.09
2019-02-10T11:40:41.914Z,98850.23
2019-02-10T11:43:10.366Z,98850.23
2019-02-10T11:45:38.793Z,98835.25
2019-02-10T11:48:07.916Z,98809.17
2019-02-10T11:50:36.529Z,98814.00
2019-02-10T11:53:04.976Z,98822.80
2019-02-10T11:55:33.406Z,98815.88
2019-02-10T11:58:01.858Z,98790.30
2019-02-10T12:00:30.282Z,98787.41
2019-02-10T12:02:58.730Z,98782.61
2019-02-10T12:05:27.160Z,98781.87
2019-02-10T12:07:55.606Z,98781.87
2019-02-10T12:10:24.026Z,98778.92
2019-02-10T12:12:52.479Z,98757.48
2019-02-10T12:15:20.971Z,98757.48
2019-02-10T12:17:49.426Z,98745.38
2019-02-10T12:20:17.855Z,98738.06
2019-02-10T12:22:50.333Z,98738.06
2019-02-10T12:25:16.459Z,98719.92
2019-02-10T12:27:44.878Z,98699.81
2019-02-10T12:30:15.341Z,98733.11
2019-02-10T12:32:43.765Z,98733.11
2019-02-10T12:35:12.592Z,98703.38
2019-02-10T12:37:41.086Z,98685.89
2019-02-10T12:40:11.071Z,98671.97
2019-02-10T12:42:39.666Z,98692.95
2019-02-10T12:45:10.147Z,98691.39
2019-02-10T12:47:38.573Z,98681.73
2019-02-10T12:50:10.432Z,98636.64
2019-02-10T12:52:38.869Z,98657.34
2019-02-10T12:55:08.261Z,98657.34
2019-02-10T12:57:36.682Z,98654.92
2019-02-10T13:00:14.286Z,98630.50
2019-02-10T13:02:42.706Z,98630.50
2019-02-10T13:05:11.229Z,98620.55
2019-02-10T13:07:39.722Z,98620.55
2019-02-10T13:10:13.219Z,98617.59
2019-02-10T13:12:41.715Z,98609.53
2019-02-10T13:15:11.601Z,98601.16
2019-02-10T13:17:40.025Z,98597.45
2019-02-10T13:20:11.378Z,98591.31
2019-02-10T13:22:39.877Z,98582.67
2019-02-10T13:25:14.883Z,98577.00
2019-02-10T13:27:43.281Z,98568.63
2019-02-10T13:30:18.266Z,98563.02
2019-02-10T13:32:46.755Z,98547.95
2019-02-10T13:35:15.201Z,98551.42
2019-02-10T13:37:43.690Z,98546.70
2019-02-10T13:40:22.605Z,98547.30
2019-02-10T13:42:51.092Z,98526.17
2019-02-10T13:45:19.544Z,98538.20
2019-02-10T13:47:47.968Z,98530.41
2019-02-10T13:50:20.293Z,98522.34
2019-02-10T13:52:48.849Z,98533.48
2019-02-10T13:55:17.576Z,98519.31
2019-02-10T13:57:46.061Z,98514.80
2019-02-10T14:00:21.722Z,98510.55
2019-02-10T14:02:50.148Z,98513.33
2019-02-10T14:05:18.636Z,98496.28
2019-02-10T14:07:47.092Z,98502.88
2019-02-10T14:10:24.912Z,98499.15
2019-02-10T14:12:47.056Z,98489.17
2019-02-10T14:15:19.403Z,98483.77
2019-02-10T14:17:47.932Z,98489.86
2019-02-10T14:20:19.857Z,98485.88
2019-02-10T14:22:48.310Z,98478.34
2019-02-10T14:25:16.732Z,98477.11
2019-02-10T14:27:46.152Z,98475.55
2019-02-10T14:30:20.537Z,98461.23
2019-02-10T14:32:48.992Z,98459.68
2019-02-10T14:35:17.424Z,98461.91
2019-02-10T14:37:45.882Z,98461.43
2019-02-10T14:40:14.372Z,98459.33
2019-02-10T14:42:42.822Z,98453.41
2019-02-10T14:45:15.330Z,98456.20
2019-02-10T14:47:43.783Z,98450.00
2019-02-10T14:50:15.376Z,98454.91
2019-02-10T14:52:43.825Z,98442.39
2019-02-10T14:55:12.321Z,98449.95
2019-02-10T14:57:40.774Z,98448.84
2019-02-10T15:00:16.038Z,98455.64
2019-02-10T15:02:44.544Z,98449.39
2019-02-10T15:05:13.109Z,98450.20
2019-02-10T15:07:41.622Z,98443.16
2019-02-10T15:10:15.694Z,98436.14
2019-02-10T15:12:44.506Z,98435.94
2019-02-10T15:15:12.998Z,98435.95
2019-02-10T15:17:41.472Z,98435.95
2019-02-10T15:20:11.030Z,98432.47
2019-02-10T15:22:39.547Z,98430.83
2019-02-10T15:25:12.662Z,98431.11
2019-02-10T15:27:41.117Z,98421.59
2019-02-10T15:30:12.635Z,98422.37
2019-02-10T15:32:41.097Z,98422.58
2019-02-10T15:35:09.588Z,98417.94
2019-02-10T15:37:38.012Z,98412.45
2019-02-10T15:40:11.314Z,98412.73
2019-02-10T15:42:39.732Z,98411.14
2019-02-10T15:45:13.013Z,98408.92
2019-02-10T15:47:41.515Z,98408.86
2019-02-10T15:50:12.200Z,98405.59
2019-02-10T15:52:40.629Z,98413.14
2019-02-10T15:55:11.319Z,98410.14
2019-02-10T15:57:39.737Z,98412.33
2019-02-10T16:00:17.398Z,98406.61
2019-02-10T16:02:45.822Z,98411.17
2019-02-10T16:05:14.286Z,98403.02
2019-02-10T16:07:42.782Z,98398.95
2019-02-10T16:10:11.876Z,98400.84
2019-02-10T16:12:40.365Z,98384.01
2019-02-10T16:15:11.255Z,98383.73
2019-02-10T16:17:39.685Z,98388.90
2019-02-10T16:20:13.671Z,98386.19
2019-02-10T16:22:42.099Z,98382.93
2019-02-10T16:25:10.616Z,98386.72
2019-02-10T16:27:39.028Z,98378.58
2019-02-10T16:30:18.276Z,98381.85
2019-02-10T16:32:49.872Z,98384.56
2019-02-10T16:35:16.885Z,98391.36
2019-02-10T16:37:45.301Z,98383.75
2019-02-10T16:40:16.665Z,98384.29
2019-02-10T16:42:45.091Z,98379.66
2019-02-10T16:45:14.377Z,98378.24
2019-02-10T16:47:42.804Z,98375.31
2019-02-10T16:50:13.004Z,98375.31
2019-02-10T16:52:41.423Z,98389.16
2019-02-10T16:55:15.646Z,98390.00
2019-02-10T16:57:44.072Z,98397.17
2019-02-10T17:00:14.629Z,98384.69
2019-02-10T17:02:43.123Z,98388.53
2019-02-10T17:05:12.116Z,98390.72
2019-02-10T17:07:40.539Z,98383.64
2019-02-10T17:10:17.763Z,98386.59
2019-02-10T17:12:46.250Z,98394.79
2019-02-10T17:15:14.826Z,98387.72
2019-02-10T17:17:43.245Z,98399.41
2019-02-10T17:20:13.509Z,98402.13
2019-02-10T17:22:41.934Z,98392.89
2019-02-10T17:25:13.195Z,98393.72
2019-02-10T17:27:41.619Z,98390.44
2019-02-10T17:30:12.921Z,98396.92
2019-02-10T17:32:41.345Z,98393.97
2019-02-10T17:35:11.992Z,98391.48
2019-02-10T17:37:40.484Z,98386.84
2019-02-10T17:40:23.738Z,98390.80
2019-02-10T17:42:52.235Z,98399.71
2019-02-10T17:45:20.651Z,98393.72
2019-02-10T17:47:49.105Z,98392.31
2019-02-10T17:50:17.535Z,98398.84
2019-02-10T17:52:45.971Z,98401.88
2019-02-10T17:55:14.454Z,98410.58
2019-02-10T17:57:42.968Z,98416.06
2019-02-10T18:00:14.710Z,98412.06
2019-02-10T18:02:43.161Z,98406.63
2019-02-10T18:05:11.644Z,98419.94
2019-02-10T18:07:40.175Z,98423.19
2019-02-10T18:10:11.990Z,98418.73
2019-02-10T18:12:40.434Z,98424.75
2019-02-10T18:15:12.331Z,98421.78
2019-02-10T18:17:42.418Z,98420.06
2019-02-10T18:20:25.170Z,98416.48
2019-02-10T18:22:57.705Z,98428.37
2019-02-10T18:25:36.580Z,98424.55
2019-02-10T18:28:22.641Z,98420.31
2019-02-10T18:31:04.962Z,98422.94
2019-02-10T18:33:40.530Z,98426.92
2019-02-10T18:36:10.671Z,98413.86
2019-02-10T18:38:43.542Z,98408.94
2019-02-10T18:41:13.602Z,98403.23
2019-02-10T18:43:49.170Z,98405.45
2019-02-10T18:46:19.237Z,98409.09
2019-02-10T18:48:55.841Z,98416.72
2019-02-10T18:51:25.913Z,98413.88
2019-02-10T18:54:01.745Z,98428.44
2019-02-10T18:56:34.787Z,98419.95
2019-02-10T18:59:20.854Z,98434.28
2019-02-10T19:01:57.096Z,98434.28
2019-02-10T19:04:39.209Z,98435.16
2019-02-10T19:07:09.292Z,98443.40
2019-02-10T19:09:48.350Z,98445.11
2019-02-10T19:12:18.413Z,98444.34
2019-02-10T19:14:53.979Z,98450.53
2019-02-10T19:17:24.050Z,98449.99
2019-02-10T19:19:56.843Z,98449.11
2019-02-10T19:22:43.519Z,98457.56
2019-02-10T19:25:19.056Z,98458.78
2019-02-10T19:27:58.349Z,98455.60
2019-02-10T19:30:28.412Z,98450.53
2019-02-10T19:32:58.494Z,98455.13
2019-02-10T19:35:37.643Z,98456.36
2019-02-10T19:38:07.818Z,98448.77
2019-02-10T19:40:54.007Z,98445.73
2019-02-10T19:43:40.546Z,98441.64
2019-02-10T19:46:13.104Z,98439.67
2019-02-10T19:48:46.233Z,98432.33
2019-02-10T19:51:16.298Z,98435.52
2019-02-10T19:53:55.114Z,98430.31
2019-02-10T19:56:40.483Z,98436.69
2019-02-10T19:59:22.631Z,98431.00
2019-02-10T20:01:55.140Z,98432.17
2019-02-10T20:04:41.253Z,98438.20
2019-02-10T20:07:26.379Z,98438.92
2019-02-10T20:10:05.189Z,98438.98
2019-02-10T20:12:37.689Z,98443.77
2019-02-10T20:15:10.420Z,98452.38
2019-02-10T20:17:40.556Z,98447.55
2019-02-10T20:20:30.105Z,98453.27
2019-02-10T20:23:16.117Z,98448.44
2019-02-10T20:26:02.641Z,98455.22
2019-02-10T20:28:41.465Z,98476.67
2019-02-10T20:31:17.905Z,98476.67
2019-02-10T20:33:47.965Z,98478.21
2019-02-10T20:36:29.728Z,98476.25
2019-02-10T20:39:11.782Z,98479.43
2019-02-10T20:41:47.851Z,98494.59
2019-02-10T20:44:33.003Z,98494.59
2019-02-10T20:47:19.475Z,98487.17
2019-02-10T20:49:52.286Z,98487.17
2019-02-10T20:52:25.270Z,98479.48
2019-02-10T20:54:55.343Z,98512.09
2019-02-10T20:57:25.433Z,98512.09
2019-02-10T20:59:58.049Z,98528.16
2019-02-10T21:02:37.010Z,98528.16
2019-02-10T21:05:07.805Z,98538.70
2019-02-10T21:07:40.452Z,98528.00
2019-02-10T21:10:22.594Z,98543.19
2019-02-10T21:13:07.460Z,98562.52
2019-02-10T21:15:43.622Z,98562.52
2019-02-10T21:18:19.417Z,98553.97
2019-02-10T21:20:55.210Z,98585.28
2019-02-10T21:23:31.321Z,98596.45
2019-02-10T21:26:03.870Z,98596.45
2019-02-10T21:28:39.456Z,98590.42
2019-02-10T21:31:09.552Z,98597.03
2019-02-10T21:33:57.664Z,98589.84
2019-02-10T21:36:33.463Z,98600.06
2019-02-10T21:39:06.550Z,98606.57
2019-02-10T21:41:36.641Z,98609.13
2019-02-10T21:44:16.075Z,98609.13
2019-02-10T21:46:46.164Z,98607.22
2019-02-10T21:49:14.590Z,98617.93
2019-02-10T21:51:43.039Z,98614.93
2019-02-10T21:54:11.530Z,98610.85
2019-02-10T21:56:40.056Z,98613.75
2019-02-10T21:59:08.484Z,98616.19
2019-02-10T22:01:36.932Z,98614.05
2019-02-10T22:04:05.431Z,98623.06
2019-02-10T22:06:33.880Z,98633.30
2019-02-10T22:09:02.311Z,98640.25
2019-02-10T22:11:30.742Z,98640.25
2019-02-10T22:13:59.195Z,98637.02
2019-02-10T22:16:27.619Z,98645.94
2019-02-10T22:18:56.075Z,98655.62
2019-02-10T22:21:24.510Z,98657.69
2019-02-10T22:23:52.961Z,98673.94
2019-02-10T22:26:21.386Z,98673.94
2019-02-10T22:28:49.829Z,98676.31
2019-02-10T22:31:19.119Z,98677.36
2019-02-10T22:33:51.581Z,98691.98
2019-02-10T22:36:17.941Z,98719.38
2019-02-10T22:38:46.385Z,98719.38
2019-02-10T22:41:14.820Z,98747.80
2019-02-10T22:43:43.270Z,98766.28
2019-02-10T22:46:11.710Z,98753.67
2019-02-10T22:48:40.162Z,98815.41
2019-02-10T22:51:10.158Z,98820.67
2019-02-10T22:53:38.719Z,98834.51
2019-02-10T22:56:07.145Z,98850.96
2019-02-10T22:58:35.596Z,98858.20
2019-02-10T23:01:04.927Z,98864.41
2019-02-10T23:03:33.429Z,98877.56
2019-02-10T23:06:01.884Z,98863.80
2019-02-10T23:08:30.324Z,98889.09
2019-02-10T23:10:58.748Z,98900.23
2019-02-10T23:13:27.196Z,98911.52
2019-02-10T23:15:55.622Z,98928.89
2019-02-10T23:18:24.072Z,98927.94
2019-02-10T23:20:52.492Z,98941.56
2019-02-10T23:23:20.944Z,98955.73
2019-02-10T23:25:49.368Z,98959.04
2019-02-10T23:28:17.892Z,98965.59
2019-02-10T23:30:46.315Z,98985.83
2019-02-10T23:33:14.830Z,98998.38
2019-02-10T23:35:43.323Z,99009.70
2019-02-10T23:38:11.771Z,99020.92
2019-02-10T23:40:40.195Z,99032.77
2019-02-10T23:43:08.626Z,99033.28
2019-02-10T23:45:37.069Z,99050.09
2019-02-10T23:48:05.498Z,99054.27
2019-02-10T23:50:33.945Z,99061.19
2019-02-10T23:53:02.371Z,99072.05
2019-02-10T23:55:30.825Z,99079.02
2019-02-10T23:57:59.253Z,99082.25
